sensor_id;sensor_type;location;lat;lon;timestamp;pressure;altitude;pressure_sealevel;temperature;humidity
56074;BME280;41950;55.840;37.442;2023-03-03T00:00:01;98219.50;;;-1.33;83.96
56074;BME280;41950;55.840;37.442;2023-03-03T00:02:31;98236.56;;;-1.19;84.28
56074;BME280;41950;55.840;37.442;2023-03-03T00:04:57;98245.13;;;-1.07;84.32
56074;BME280;41950;55.840;37.442;2023-03-03T00:07:23;98230.59;;;-1.21;84.38
56074;BME280;41950;55.840;37.442;2023-03-03T00:09:49;98245.16;;;-1.04;84.36
56074;BME280;41950;55.840;37.442;2023-03-03T00:12:28;98245.16;;;-1.04;84.39
56074;BME280;41950;55.840;37.442;2023-03-03T00:14:55;98161.69;;;-1.55;84.47
56074;BME280;41950;55.840;37.442;2023-03-03T00:17:29;98217.88;;;-1.20;84.52
56074;BME280;41950;55.840;37.442;2023-03-03T00:19:56;98221.31;;;-1.15;84.68
56074;BME280;41950;55.840;37.442;2023-03-03T00:22:37;98234.97;;;-1.01;84.81
56074;BME280;41950;55.840;37.442;2023-03-03T00:27:45;98227.34;;;-1.02;85.60
56074;BME280;41950;55.840;37.442;2023-03-03T00:30:26;98189.97;;;-1.08;85.49
56074;BME280;41950;55.840;37.442;2023-03-03T00:32:53;98201.88;;;-1.02;85.68
56074;BME280;41950;55.840;37.442;2023-03-03T00:37:58;98171.31;;;-1.07;85.53
56074;BME280;41950;55.840;37.442;2023-03-03T00:40:36;98208.72;;;-0.86;85.43
56074;BME280;41950;55.840;37.442;2023-03-03T00:43:22;98212.97;;;-0.83;85.38
56074;BME280;41950;55.840;37.442;2023-03-03T00:45:53;98188.31;;;-0.94;85.40
56074;BME280;41950;55.840;37.442;2023-03-03T00:48:45;98178.97;;;-0.93;85.33
56074;BME280;41950;55.840;37.442;2023-03-03T00:51:32;98190.09;;;-0.77;85.33
56074;BME280;41950;55.840;37.442;2023-03-03T00:54:00;98120.34;;;-1.13;85.90
56074;BME280;41950;55.840;37.442;2023-03-03T00:56:26;98169.72;;;-0.82;85.65
56074;BME280;41950;55.840;37.442;2023-03-03T00:58:52;98179.06;;;-0.73;85.72
56074;BME280;41950;55.840;37.442;2023-03-03T01:01:18;98173.13;;;-0.72;86.26
56074;BME280;41950;55.840;37.442;2023-03-03T01:03:44;98172.28;;;-0.74;86.77
56074;BME280;41950;55.840;37.442;2023-03-03T01:06:11;98171.41;;;-0.79;87.62
56074;BME280;41950;55.840;37.442;2023-03-03T01:08:38;98165.44;;;-0.84;88.09
56074;BME280;41950;55.840;37.442;2023-03-03T01:11:11;98156.06;;;-0.91;88.39
56074;BME280;41950;55.840;37.442;2023-03-03T01:13:41;98173.91;;;-0.85;88.93
56074;BME280;41950;55.840;37.442;2023-03-03T01:16:07;98146.72;;;-0.99;89.00
56074;BME280;41950;55.840;37.442;2023-03-03T01:18:37;98172.22;;;-0.83;89.46
56074;BME280;41950;55.840;37.442;2023-03-03T01:21:06;98154.34;;;-0.97;89.34
56074;BME280;41950;55.840;37.442;2023-03-03T01:23:32;98173.13;;;-0.80;89.54
56074;BME280;41950;55.840;37.442;2023-03-03T01:26:00;98151.81;;;-0.89;89.65
56074;BME280;41950;55.840;37.442;2023-03-03T01:28:26;98168.88;;;-0.73;89.50
56074;BME280;41950;55.840;37.442;2023-03-03T01:30:51;98117.84;;;-1.01;89.33
56074;BME280;41950;55.840;37.442;2023-03-03T01:33:21;98171.44;;;-0.67;89.57
56074;BME280;41950;55.840;37.442;2023-03-03T01:35:47;98139.97;;;-0.84;89.38
56074;BME280;41950;55.840;37.442;2023-03-03T01:38:14;98149.34;;;-0.76;89.38
56074;BME280;41950;55.840;37.442;2023-03-03T01:40:41;98165.50;;;-0.66;89.06
56074;BME280;41950;55.840;37.442;2023-03-03T01:43:07;98168.03;;;-0.65;89.19
56074;BME280;41950;55.840;37.442;2023-03-03T01:48:38;98161.25;;;-0.64;89.25
56074;BME280;41950;55.840;37.442;2023-03-03T01:53:49;98130.66;;;-0.81;89.06
56074;BME280;41950;55.840;37.442;2023-03-03T01:56:16;98148.53;;;-0.61;89.35
56074;BME280;41950;55.840;37.442;2023-03-03T01:58:45;98145.97;;;-0.61;89.01
56074;BME280;41950;55.840;37.442;2023-03-03T02:01:18;98127.28;;;-0.68;89.20
56074;BME280;41950;55.840;37.442;2023-03-03T02:03:48;98145.16;;;-0.54;89.01
56074;BME280;41950;55.840;37.442;2023-03-03T02:06:18;98129.00;;;-0.57;88.97
56074;BME280;41950;55.840;37.442;2023-03-03T02:08:59;98131.56;;;-0.53;88.86
56074;BME280;41950;55.840;37.442;2023-03-03T02:11:28;98132.44;;;-0.49;88.82
56074;BME280;41950;55.840;37.442;2023-03-03T02:13:57;98064.41;;;-0.87;88.73
56074;BME280;41950;55.840;37.442;2023-03-03T02:16:22;98121.38;;;-0.47;88.61
56074;BME280;41950;55.840;37.442;2023-03-03T02:18:50;98063.59;;;-0.78;88.55
56074;BME280;41950;55.840;37.442;2023-03-03T02:21:21;98113.75;;;-0.47;88.41
56074;BME280;41950;55.840;37.442;2023-03-03T02:24:17;98106.94;;;-0.51;88.46
56074;BME280;41950;55.840;37.442;2023-03-03T02:26:46;98068.69;;;-0.74;88.52
56074;BME280;41950;55.840;37.442;2023-03-03T02:29:13;98089.91;;;-0.59;88.51
56074;BME280;41950;55.840;37.442;2023-03-03T02:31:39;98108.66;;;-0.48;88.54
56074;BME280;41950;55.840;37.442;2023-03-03T02:34:05;98058.50;;;-0.80;88.55
56074;BME280;41950;55.840;37.442;2023-03-03T02:36:36;98108.66;;;-0.41;88.41
56074;BME280;41950;55.840;37.442;2023-03-03T02:41:44;98112.03;;;-0.43;88.49
56074;BME280;41950;55.840;37.442;2023-03-03T02:44:18;98102.69;;;-0.46;88.29
56074;BME280;41950;55.840;37.442;2023-03-03T02:46:45;98038.09;;;-0.84;88.57
56074;BME280;41950;55.840;37.442;2023-03-03T02:49:17;98090.81;;;-0.47;88.62
56074;BME280;41950;55.840;37.442;2023-03-03T02:51:43;98031.31;;;-0.76;88.72
56074;BME280;41950;55.840;37.442;2023-03-03T02:54:12;98091.66;;;-0.40;88.54
56074;BME280;41950;55.840;37.442;2023-03-03T02:56:38;98050.00;;;-0.62;88.62
56074;BME280;41950;55.840;37.442;2023-03-03T02:59:04;98066.16;;;-0.49;88.54
56074;BME280;41950;55.840;37.442;2023-03-03T03:01:31;98085.72;;;-0.45;88.74
56074;BME280;41950;55.840;37.442;2023-03-03T03:04:16;98082.31;;;-0.43;88.76
56074;BME280;41950;55.840;37.442;2023-03-03T03:06:43;98044.91;;;-0.71;89.07
56074;BME280;41950;55.840;37.442;2023-03-03T03:09:11;98088.25;;;-0.47;89.01
56074;BME280;41950;55.840;37.442;2023-03-03T03:11:38;98078.06;;;-0.53;89.35
56074;BME280;41950;55.840;37.442;2023-03-03T03:14:06;98013.47;;;-0.90;89.67
56074;BME280;41950;55.840;37.442;2023-03-03T03:16:34;98053.41;;;-0.62;89.59
56074;BME280;41950;55.840;37.442;2023-03-03T03:19:02;98066.13;;;-0.58;90.00
56074;BME280;41950;55.840;37.442;2023-03-03T03:21:28;98044.91;;;-0.73;90.24
56074;BME280;41950;55.840;37.442;2023-03-03T03:23:56;98072.97;;;-0.53;90.36
56074;BME280;41950;55.840;37.442;2023-03-03T03:26:23;98079.75;;;-0.46;90.59
56074;BME280;41950;55.840;37.442;2023-03-03T03:28:50;98073.81;;;-0.45;90.46
56074;BME280;41950;55.840;37.442;2023-03-03T03:31:18;98048.31;;;-0.66;90.65
56074;BME280;41950;55.840;37.442;2023-03-03T03:33:45;98043.22;;;-0.57;90.63
56074;BME280;41950;55.840;37.442;2023-03-03T03:36:14;98032.16;;;-0.70;90.32
56074;BME280;41950;55.840;37.442;2023-03-03T03:38:41;98070.41;;;-0.44;90.43
56074;BME280;41950;55.840;37.442;2023-03-03T03:41:07;98072.97;;;-0.47;90.40
56074;BME280;41950;55.840;37.442;2023-03-03T03:43:34;98065.31;;;-0.47;90.43
56074;BME280;41950;55.840;37.442;2023-03-03T03:46:00;98061.06;;;-0.48;90.46
56074;BME280;41950;55.840;37.442;2023-03-03T03:48:28;98064.47;;;-0.49;90.60
56074;BME280;41950;55.840;37.442;2023-03-03T03:50:54;98062.78;;;-0.48;90.84
56074;BME280;41950;55.840;37.442;2023-03-03T03:53:22;98058.53;;;-0.45;90.90
56074;BME280;41950;55.840;37.442;2023-03-03T03:55:48;98038.97;;;-0.59;90.79
56074;BME280;41950;55.840;37.442;2023-03-03T03:58:18;98028.78;;;-0.59;90.78
56074;BME280;41950;55.840;37.442;2023-03-03T04:00:45;97996.50;;;-0.82;90.88
56074;BME280;41950;55.840;37.442;2023-03-03T04:03:12;98036.41;;;-0.58;90.93
56074;BME280;41950;55.840;37.442;2023-03-03T04:05:43;98034.72;;;-0.62;90.92
56074;BME280;41950;55.840;37.442;2023-03-03T04:08:10;98009.25;;;-0.74;90.99
56074;BME280;41950;55.840;37.442;2023-03-03T04:10:41;98045.75;;;-0.55;91.12
56074;BME280;41950;55.840;37.442;2023-03-03T04:13:07;98002.47;;;-0.81;91.29
56074;BME280;41950;55.840;37.442;2023-03-03T04:15:33;98014.34;;;-0.74;91.26
56074;BME280;41950;55.840;37.442;2023-03-03T04:18:01;98007.56;;;-0.78;91.27
56074;BME280;41950;55.840;37.442;2023-03-03T04:20:28;98039.81;;;-0.65;91.48
56074;BME280;41950;55.840;37.442;2023-03-03T04:22:54;98055.97;;;-0.46;91.52
56074;BME280;41950;55.840;37.442;2023-03-03T04:25:22;98014.34;;;-0.70;91.43
56074;BME280;41950;55.840;37.442;2023-03-03T04:27:49;98042.38;;;-0.53;91.55
56074;BME280;41950;55.840;37.442;2023-03-03T04:30:19;98039.81;;;-0.56;91.29
56074;BME280;41950;55.840;37.442;2023-03-03T04:32:46;97914.13;;;-1.28;91.36
56074;BME280;41950;55.840;37.442;2023-03-03T04:35:12;97911.59;;;-1.25;91.46
56074;BME280;41950;55.840;37.442;2023-03-03T04:37:38;98030.50;;;-0.43;91.42
56074;BME280;41950;55.840;37.442;2023-03-03T04:40:06;98010.09;;;-0.57;91.25
56074;BME280;41950;55.840;37.442;2023-03-03T04:42:34;98035.59;;;-0.43;91.30
56074;BME280;41950;55.840;37.442;2023-03-03T04:45:02;97969.31;;;-0.83;91.36
56074;BME280;41950;55.840;37.442;2023-03-03T04:47:30;98032.19;;;-0.41;91.11
56074;BME280;41950;55.840;37.442;2023-03-03T04:49:56;98033.88;;;-0.47;90.92
56074;BME280;41950;55.840;37.442;2023-03-03T04:52:22;98038.13;;;-0.45;90.75
56074;BME280;41950;55.840;37.442;2023-03-03T04:54:48;98038.13;;;-0.42;90.90
56074;BME280;41950;55.840;37.442;2023-03-03T04:57:14;98003.28;;;-0.64;90.72
56074;BME280;41950;55.840;37.442;2023-03-03T04:59:40;97983.78;;;-0.70;90.38
56074;BME280;41950;55.840;37.442;2023-03-03T05:02:05;98018.59;;;-0.46;90.47
56074;BME280;41950;55.840;37.442;2023-03-03T05:04:32;97997.34;;;-0.55;90.57
56074;BME280;41950;55.840;37.442;2023-03-03T05:06:59;98052.56;;;-0.30;90.21
56074;BME280;41950;55.840;37.442;2023-03-03T05:09:25;98028.78;;;-0.41;90.02
56074;BME280;41950;55.840;37.442;2023-03-03T05:11:52;98031.34;;;-0.52;90.05
56074;BME280;41950;55.840;37.442;2023-03-03T05:14:18;97970.16;;;-0.85;90.19
56074;BME280;41950;55.840;37.442;2023-03-03T05:16:44;98051.72;;;-0.34;90.25
56074;BME280;41950;55.840;37.442;2023-03-03T05:19:12;98055.13;;;-0.33;89.94
56074;BME280;41950;55.840;37.442;2023-03-03T05:21:39;97990.56;;;-0.73;89.94
56074;BME280;41950;55.840;37.442;2023-03-03T05:24:09;98053.41;;;-0.36;89.59
56074;BME280;41950;55.840;37.442;2023-03-03T05:26:35;98061.06;;;-0.34;89.52
56074;BME280;41950;55.840;37.442;2023-03-03T05:29:01;98049.16;;;-0.38;89.33
56074;BME280;41950;55.840;37.442;2023-03-03T05:31:28;98036.44;;;-0.40;89.26
56074;BME280;41950;55.840;37.442;2023-03-03T05:33:55;98018.59;;;-0.43;88.82
56074;BME280;41950;55.840;37.442;2023-03-03T05:36:21;98019.44;;;-0.38;88.85
56074;BME280;41950;55.840;37.442;2023-03-03T05:38:47;98050.00;;;-0.15;88.51
56074;BME280;41950;55.840;37.442;2023-03-03T05:41:13;97973.59;;;-0.54;88.26
56074;BME280;41950;55.840;37.442;2023-03-03T05:43:39;98020.25;;;-0.28;87.73
56074;BME280;41950;55.840;37.442;2023-03-03T05:46:06;98018.59;;;-0.40;87.72
56074;BME280;41950;55.840;37.442;2023-03-03T05:48:32;98055.97;;;-0.23;87.47
56074;BME280;41950;55.840;37.442;2023-03-03T05:51:00;97987.19;;;-0.54;87.68
56074;BME280;41950;55.840;37.442;2023-03-03T05:53:28;98064.47;;;-0.15;87.50
56074;BME280;41950;55.840;37.442;2023-03-03T05:55:55;98027.06;;;-0.28;87.41
56074;BME280;41950;55.840;37.442;2023-03-03T05:58:22;98035.56;;;-0.19;87.54
56074;BME280;41950;55.840;37.442;2023-03-03T06:00:48;98027.09;;;-0.21;87.24
56074;BME280;41950;55.840;37.442;2023-03-03T06:03:16;98048.31;;;-0.08;87.24
56074;BME280;41950;55.840;37.442;2023-03-03T06:05:42;98049.97;;;-0.01;86.98
56074;BME280;41950;55.840;37.442;2023-03-03T06:08:08;98051.69;;;-0.05;86.22
56074;BME280;41950;55.840;37.442;2023-03-03T06:10:35;98058.50;;;-0.02;86.00
56074;BME280;41950;55.840;37.442;2023-03-03T06:13:02;98035.59;;;-0.22;86.30
56074;BME280;41950;55.840;37.442;2023-03-03T06:15:28;98051.69;;;-0.02;86.25
56074;BME280;41950;55.840;37.442;2023-03-03T06:17:53;98059.34;;;0.08;86.41
56074;BME280;41950;55.840;37.442;2023-03-03T06:20:19;98026.19;;;-0.09;85.68
56074;BME280;41950;55.840;37.442;2023-03-03T06:22:45;98016.84;;;0.07;85.51
56074;BME280;41950;55.840;37.442;2023-03-03T06:25:11;98023.66;;;0.03;83.53
56074;BME280;41950;55.840;37.442;2023-03-03T06:27:36;98058.47;;;0.19;83.56
56074;BME280;41950;55.840;37.442;2023-03-03T06:30:03;98064.41;;;0.18;83.66
56074;BME280;41950;55.840;37.442;2023-03-03T06:32:30;98037.25;;;0.08;84.09
56074;BME280;41950;55.840;37.442;2023-03-03T06:34:55;98061.00;;;0.30;83.87
56074;BME280;41950;55.840;37.442;2023-03-03T06:37:23;98071.19;;;0.33;83.60
56074;BME280;41950;55.840;37.442;2023-03-03T06:39:49;98045.72;;;0.19;82.95
56074;BME280;41950;55.840;37.442;2023-03-03T06:42:17;98048.28;;;0.13;83.32
56074;BME280;41950;55.840;37.442;2023-03-03T06:44:43;98072.91;;;0.34;83.69
56074;BME280;41950;55.840;37.442;2023-03-03T06:47:09;98066.06;;;0.44;83.55
56074;BME280;41950;55.840;37.442;2023-03-03T06:49:34;98056.69;;;0.46;83.52
56074;BME280;41950;55.840;37.442;2023-03-03T06:52:09;98061.81;;;0.44;83.15
56074;BME280;41950;55.840;37.442;2023-03-03T06:54:36;98051.59;;;0.46;83.11
56074;BME280;41950;55.840;37.442;2023-03-03T07:00:14;98076.25;;;0.50;83.33
56074;BME280;41950;55.840;37.442;2023-03-03T07:02:40;98055.81;;;0.48;83.20
56074;BME280;41950;55.840;37.442;2023-03-03T07:05:11;98070.28;;;0.55;82.42
56074;BME280;41950;55.840;37.442;2023-03-03T07:07:39;98070.31;;;0.40;82.52
56074;BME280;41950;55.840;37.442;2023-03-03T07:10:15;98062.72;;;0.29;82.25
56074;BME280;41950;55.840;37.442;2023-03-03T07:12:42;98078.88;;;0.32;82.25
56074;BME280;41950;55.840;37.442;2023-03-03T07:15:14;98082.25;;;0.26;81.96
56074;BME280;41950;55.840;37.442;2023-03-03T07:17:44;98062.72;;;0.19;82.08
56074;BME280;41950;55.840;37.442;2023-03-03T07:20:34;98057.63;;;0.14;81.98
56074;BME280;41950;55.840;37.442;2023-03-03T07:23:20;98038.94;;;0.12;82.06
56074;BME280;41950;55.840;37.442;2023-03-03T07:25:46;98038.09;;;0.10;81.69
56074;BME280;41950;55.840;37.442;2023-03-03T07:28:26;98055.91;;;0.24;81.07
56074;BME280;41950;55.840;37.442;2023-03-03T07:30:54;98083.06;;;0.43;81.43
56074;BME280;41950;55.840;37.442;2023-03-03T07:33:25;98083.06;;;0.49;80.60
56074;BME280;41950;55.840;37.442;2023-03-03T07:35:53;98062.66;;;0.45;80.92
56074;BME280;41950;55.840;37.442;2023-03-03T07:38:41;98082.16;;;0.64;79.51
56074;BME280;41950;55.840;37.442;2023-03-03T07:41:21;98050.75;;;0.39;79.54
56074;BME280;41950;55.840;37.442;2023-03-03T07:43:51;98077.91;;;0.63;79.66
56074;BME280;41950;55.840;37.442;2023-03-03T07:46:28;98056.69;;;0.55;78.88
56074;BME280;41950;55.840;37.442;2023-03-03T07:48:57;98044.78;;;0.48;79.17
56074;BME280;41950;55.840;37.442;2023-03-03T07:51:38;98084.66;;;0.76;79.24
56074;BME280;41950;55.840;37.442;2023-03-03T07:54:34;98087.19;;;0.88;79.10
56074;BME280;41950;55.840;37.442;2023-03-03T07:57:18;98082.94;;;0.89;78.78
56074;BME280;41950;55.840;37.442;2023-03-03T07:59:50;98082.91;;;0.90;78.82
56074;BME280;41950;55.840;37.442;2023-03-03T08:04:59;98085.41;;;1.00;78.06
56074;BME280;41950;55.840;37.442;2023-03-03T08:07:25;98082.88;;;1.00;78.05
56074;BME280;41950;55.840;37.442;2023-03-03T08:09:57;98082.03;;;0.95;77.58
56074;BME280;41950;55.840;37.442;2023-03-03T08:12:39;98085.44;;;0.97;77.40
56074;BME280;41950;55.840;37.442;2023-03-03T08:15:23;98086.25;;;1.00;77.78
56074;BME280;41950;55.840;37.442;2023-03-03T08:17:53;98087.16;;;0.95;77.54
56074;BME280;41950;55.840;37.442;2023-03-03T08:20:41;98088.88;;;0.82;77.46
56074;BME280;41950;55.840;37.442;2023-03-03T08:23:07;98050.72;;;0.59;77.87
56074;BME280;41950;55.840;37.442;2023-03-03T08:25:33;98066.81;;;0.73;77.98
56074;BME280;41950;55.840;37.442;2023-03-03T08:28:03;98062.53;;;0.84;77.58
56074;BME280;41950;55.840;37.442;2023-03-03T08:30:29;98084.50;;;1.16;77.29
56074;BME280;41950;55.840;37.442;2023-03-03T08:32:56;98094.59;;;1.40;76.78
56074;BME280;41950;55.840;37.442;2023-03-03T08:35:22;98028.34;;;1.02;75.78
56074;BME280;41950;55.840;37.442;2023-03-03T08:37:52;98105.56;;;1.54;76.28
56074;BME280;41950;55.840;37.442;2023-03-03T08:40:19;98043.50;;;1.30;75.57
56074;BME280;41950;55.840;37.442;2023-03-03T08:42:45;98011.28;;;1.09;75.76
56074;BME280;41950;55.840;37.442;2023-03-03T08:45:10;98103.66;;;1.81;76.20
56074;BME280;41950;55.840;37.442;2023-03-03T08:47:38;98086.63;;;1.80;75.44
56074;BME280;41950;55.840;37.442;2023-03-03T08:50:05;98089.16;;;1.83;75.36
56074;BME280;41950;55.840;37.442;2023-03-03T08:52:32;98100.22;;;1.85;74.83
56074;BME280;41950;55.840;37.442;2023-03-03T08:54:59;98069.66;;;1.70;74.94
56074;BME280;41950;55.840;37.442;2023-03-03T08:57:25;98103.38;;;2.14;74.80
56074;BME280;41950;55.840;37.442;2023-03-03T08:59:51;98056.69;;;1.90;73.68
56074;BME280;41950;55.840;37.442;2023-03-03T09:02:18;98060.31;;;1.63;75.08
56074;BME280;41950;55.840;37.442;2023-03-03T09:04:45;98106.19;;;1.85;76.13
56074;BME280;41950;55.840;37.442;2023-03-03T09:07:11;98106.03;;;2.04;76.43
56074;BME280;41950;55.840;37.442;2023-03-03T09:09:37;98097.38;;;2.15;75.94
56074;BME280;41950;55.840;37.442;2023-03-03T09:12:28;98100.66;;;2.33;75.64
56074;BME280;41950;55.840;37.442;2023-03-03T09:15:12;98084.50;;;2.28;75.57
56074;BME280;41950;55.840;37.442;2023-03-03T09:17:40;98103.19;;;2.36;75.24
56074;BME280;41950;55.840;37.442;2023-03-03T09:20:36;98105.81;;;2.30;75.22
56074;BME280;41950;55.840;37.442;2023-03-03T09:23:40;98103.38;;;2.14;75.29
56074;BME280;41950;55.840;37.442;2023-03-03T09:29:30;98102.50;;;2.17;75.93
56074;BME280;41950;55.840;37.442;2023-03-03T09:32:29;98073.00;;;1.76;76.18
56074;BME280;41950;55.840;37.442;2023-03-03T09:34:58;98069.66;;;1.70;77.20
56074;BME280;41950;55.840;37.442;2023-03-03T09:37:34;98112.06;;;1.97;76.90
56074;BME280;41950;55.840;37.442;2023-03-03T09:43:03;98084.13;;;1.71;76.72
56074;BME280;41950;55.840;37.442;2023-03-03T09:45:50;98096.88;;;1.78;76.55
56074;BME280;41950;55.840;37.442;2023-03-03T09:48:26;98118.03;;;1.99;76.66
56074;BME280;41950;55.840;37.442;2023-03-03T09:54:35;98104.47;;;1.86;75.70
56074;BME280;41950;55.840;37.442;2023-03-03T09:59:47;98067.97;;;1.69;75.81
56074;BME280;41950;55.840;37.442;2023-03-03T10:05:04;98107.63;;;2.20;74.78
56074;BME280;41950;55.840;37.442;2023-03-03T10:11:19;98106.78;;;2.13;74.08
56074;BME280;41950;55.840;37.442;2023-03-03T10:13:52;98110.28;;;2.06;74.36
56074;BME280;41950;55.840;37.442;2023-03-03T10:19:58;98093.31;;;1.96;74.12
56074;BME280;41950;55.840;37.442;2023-03-03T10:22:26;98085.69;;;1.93;74.40
56074;BME280;41950;55.840;37.442;2023-03-03T10:39:17;98092.56;;;1.83;72.76
56074;BME280;41950;55.840;37.442;2023-03-03T10:52:51;98103.31;;;2.24;71.64
56074;BME280;41950;55.840;37.442;2023-03-03T10:55:34;98063.25;;;2.20;71.24
56074;BME280;41950;55.840;37.442;2023-03-03T11:06:38;98110.56;;;3.35;68.79
56074;BME280;41950;55.840;37.442;2023-03-03T11:09:38;98107.13;;;3.36;67.64
56074;BME280;41950;55.840;37.442;2023-03-03T11:12:27;98120.06;;;3.26;67.66
56074;BME280;41950;55.840;37.442;2023-03-03T11:18:12;98097.81;;;2.59;69.88
56074;BME280;41950;55.840;37.442;2023-03-03T11:27:05;98108.41;;;2.25;71.85
56074;BME280;41950;55.840;37.442;2023-03-03T11:35:20;98093.16;;;2.11;72.72
56074;BME280;41950;55.840;37.442;2023-03-03T11:37:58;98119.72;;;2.00;73.44
56074;BME280;41950;55.840;37.442;2023-03-03T11:40:43;98113.03;;;1.80;74.62
56074;BME280;41950;55.840;37.442;2023-03-03T11:45:47;98086.69;;;1.71;75.24
56074;BME280;41950;55.840;37.442;2023-03-03T11:48:49;98110.09;;;2.28;74.44
56074;BME280;41950;55.840;37.442;2023-03-03T11:56:41;98118.25;;;2.63;71.46
56074;BME280;41950;55.840;37.442;2023-03-03T12:03:01;97996.00;;;2.05;69.00
56074;BME280;41950;55.840;37.442;2023-03-03T12:05:44;97984.41;;;1.69;69.39
56074;BME280;41950;55.840;37.442;2023-03-03T12:08:25;97974.63;;;1.16;70.15
56074;BME280;41950;55.840;37.442;2023-03-03T12:16:40;97998.34;;;1.30;70.96
56074;BME280;41950;55.840;37.442;2023-03-03T12:24:33;98117.94;;;2.92;68.50
56074;BME280;41950;55.840;37.442;2023-03-03T12:30:23;98123.94;;;2.91;67.68
56074;BME280;41950;55.840;37.442;2023-03-03T12:36:02;98101.31;;;2.53;68.43
56074;BME280;41950;55.840;37.442;2023-03-03T12:41:32;98068.34;;;2.23;68.61
56074;BME280;41950;55.840;37.442;2023-03-03T12:49:56;98123.72;;;2.30;69.56
56074;BME280;41950;55.840;37.442;2023-03-03T12:55:52;98132.28;;;2.29;69.83
56074;BME280;41950;55.840;37.442;2023-03-03T13:07:12;98144.50;;;1.96;71.29
56074;BME280;41950;55.840;37.442;2023-03-03T13:10:15;98134.25;;;1.96;71.25
56074;BME280;41950;55.840;37.442;2023-03-03T13:15:38;98136.78;;;2.01;71.30
56074;BME280;41950;55.840;37.442;2023-03-03T13:18:17;98133.28;;;2.08;70.96
56074;BME280;41950;55.840;37.442;2023-03-03T13:21:04;98123.00;;;2.12;70.65
56074;BME280;41950;55.840;37.442;2023-03-03T13:31:48;98081.16;;;2.18;69.96
56074;BME280;41950;55.840;37.442;2023-03-03T13:34:27;98085.13;;;2.46;68.76
56074;BME280;41950;55.840;37.442;2023-03-03T13:39:55;98123.06;;;2.91;66.43
56074;BME280;41950;55.840;37.442;2023-03-03T13:42:35;98123.31;;;2.69;67.33
56074;BME280;41950;55.840;37.442;2023-03-03T13:48:45;98118.41;;;2.50;67.58
56074;BME280;41950;55.840;37.442;2023-03-03T13:51:39;98117.75;;;2.31;68.15
56074;BME280;41950;55.840;37.442;2023-03-03T14:00:31;98116.25;;;2.07;68.22
56074;BME280;41950;55.840;37.442;2023-03-03T14:06:02;98115.31;;;2.15;68.26
56074;BME280;41950;55.840;37.442;2023-03-03T14:13:58;98120.63;;;1.94;67.50
56074;BME280;41950;55.840;37.442;2023-03-03T14:16:50;98122.44;;;1.77;67.71
56074;BME280;41950;55.840;37.442;2023-03-03T14:19:17;98125.91;;;1.73;68.04
56074;BME280;41950;55.840;37.442;2023-03-03T14:24:31;98083.47;;;1.44;67.96
56074;BME280;41950;55.840;37.442;2023-03-03T14:27:22;98120.00;;;1.65;68.24
56074;BME280;41950;55.840;37.442;2023-03-03T14:29:49;98125.97;;;1.61;68.27
56074;BME280;41950;55.840;37.442;2023-03-03T14:32:26;98098.81;;;1.44;68.04
56074;BME280;41950;55.840;37.442;2023-03-03T14:34:59;97980.88;;;0.69;68.26
56074;BME280;41950;55.840;37.442;2023-03-03T14:37:41;98126.88;;;1.53;68.42
56074;BME280;41950;55.840;37.442;2023-03-03T14:42:53;98126.88;;;1.52;68.62
56074;BME280;41950;55.840;37.442;2023-03-03T14:45:40;98123.53;;;1.42;68.95
56074;BME280;41950;55.840;37.442;2023-03-03T14:50:54;98122.69;;;1.40;69.38
56074;BME280;41950;55.840;37.442;2023-03-03T14:53:41;98105.72;;;1.24;69.37
56074;BME280;41950;55.840;37.442;2023-03-03T14:58:52;98110.91;;;1.15;69.46
56074;BME280;41950;55.840;37.442;2023-03-03T15:01:33;98109.19;;;1.18;69.46
56074;BME280;41950;55.840;37.442;2023-03-03T15:06:46;98104.97;;;1.05;69.19
56074;BME280;41950;55.840;37.442;2023-03-03T15:12:25;98106.69;;;1.00;68.97
56074;BME280;41950;55.840;37.442;2023-03-03T15:21:14;98127.09;;;1.08;69.95
56074;BME280;41950;55.840;37.442;2023-03-03T15:24:00;98143.25;;;1.19;69.46
56074;BME280;41950;55.840;37.442;2023-03-03T15:26:43;98135.63;;;1.11;69.60
56074;BME280;41950;55.840;37.442;2023-03-03T15:32:28;98083.81;;;0.73;69.62
56074;BME280;41950;55.840;37.442;2023-03-03T15:35:30;98145.00;;;1.02;69.42
56074;BME280;41950;55.840;37.442;2023-03-03T15:40:54;98118.69;;;0.86;69.42
56074;BME280;41950;55.840;37.442;2023-03-03T15:43:44;98096.59;;;0.73;69.69
56074;BME280;41950;55.840;37.442;2023-03-03T15:57:16;98133.97;;;0.98;69.31
56074;BME280;41950;55.840;37.442;2023-03-03T16:00:12;98140.75;;;1.02;69.14
56074;BME280;41950;55.840;37.442;2023-03-03T16:06:02;98080.47;;;0.61;69.48
56074;BME280;41950;55.840;37.442;2023-03-03T16:20:02;98133.97;;;0.98;69.66
56074;BME280;41950;55.840;37.442;2023-03-03T16:22:55;98079.59;;;0.66;69.46
56074;BME280;41950;55.840;37.442;2023-03-03T16:31:28;98152.72;;;0.92;69.65
56074;BME280;41950;55.840;37.442;2023-03-03T16:56:21;98151.88;;;0.89;69.78
56074;BME280;41950;55.840;37.442;2023-03-03T16:59:15;98152.72;;;0.89;69.63
56074;BME280;41950;55.840;37.442;2023-03-03T17:04:59;98148.50;;;0.84;69.83
56074;BME280;41950;55.840;37.442;2023-03-03T17:19:04;98155.31;;;0.83;69.99
56074;BME280;41950;55.840;37.442;2023-03-03T17:27:13;98150.19;;;0.77;69.92
56074;BME280;41950;55.840;37.442;2023-03-03T17:38:30;98149.38;;;0.71;70.18
56074;BME280;41950;55.840;37.442;2023-03-03T17:41:15;98116.25;;;0.43;70.13
56074;BME280;41950;55.840;37.442;2023-03-03T17:47:09;98147.69;;;0.64;70.38
56074;BME280;41950;55.840;37.442;2023-03-03T17:50:41;98158.75;;;0.64;70.33
56074;BME280;41950;55.840;37.442;2023-03-03T18:01:02;98140.88;;;0.63;70.43
56074;BME280;41950;55.840;37.442;2023-03-03T18:09:19;98145.16;;;0.62;70.12
56074;BME280;41950;55.840;37.442;2023-03-03T18:23:29;98139.19;;;0.60;70.45
56074;BME280;41950;55.840;37.442;2023-03-03T18:26:00;98005.00;;;-0.23;70.03
56074;BME280;41950;55.840;37.442;2023-03-03T18:28:42;98147.72;;;0.56;70.45
56074;BME280;41950;55.840;37.442;2023-03-03T18:31:42;98142.59;;;0.50;70.35
56074;BME280;41950;55.840;37.442;2023-03-03T18:34:40;98128.19;;;0.35;70.53